Time;durP1;ratioP1;P1;durP2;ratioP2;P2;SDS_P1;SDS_P2;PMS_P1;PMS_P2;Temp;Humidity;BMP_temperature;BMP_pressure;BME280_temperature;BME280_humidity;BME280_pressure;Samples;Min_cycle;Max_cycle;Signal;HPM_P1;HPM_P2
2022/05/16 00:00:11;;;;;;;11.35;6.95;;;;;;;6.87;85.70;98470.41;1743365;82;21075;-84
2022/05/16 00:02:39;;;;;;;15.10;7.35;;;;;;;6.78;87.58;98473.23;1728398;81;20995;-84
2022/05/16 00:05:05;;;;;;;10.93;7.12;;;;;;;6.73;88.64;98468.55;1720085;82;20957;-84
2022/05/16 00:07:31;;;;;;;12.37;8.35;;;;;;;6.74;87.21;98471.53;1721592;82;21021;-84
2022/05/16 00:09:57;;;;;;;14.58;7.55;;;;;;;6.65;89.12;98465.45;1730184;80;21418;-81
2022/05/16 00:12:23;;;;;;;12.75;7.22;;;;;;;6.65;88.08;98467.61;1722806;81;20974;-81
2022/05/16 00:14:49;;;;;;;13.20;7.95;;;;;;;6.60;88.36;98468.88;1729219;80;21086;-84
2022/05/16 00:17:15;;;;;;;11.48;7.37;;;;;;;6.59;86.68;98467.25;1730290;82;20954;-85
2022/05/16 00:19:41;;;;;;;14.20;7.40;;;;;;;6.53;88.91;98461.48;1719483;82;21643;-83
2022/05/16 00:22:07;;;;;;;12.40;6.67;;;;;;;6.50;89.08;98464.67;1709724;80;21050;-85
2022/05/16 00:24:33;;;;;;;11.88;7.65;;;;;;;6.54;87.21;98460.95;1740485;80;20944;-82
2022/05/16 00:26:59;;;;;;;12.80;7.47;;;;;;;6.44;88.73;98457.03;1748431;81;21572;-81
2022/05/16 00:29:25;;;;;;;14.58;7.40;;;;;;;6.43;87.23;98458.62;1719249;80;20927;-82
2022/05/16 00:31:53;;;;;;;11.68;7.53;;;;;;;6.30;89.83;98448.14;1728190;80;21457;-81
2022/05/16 00:34:19;;;;;;;10.05;6.78;;;;;;;6.28;89.49;98459.69;1728683;80;21082;-84
2022/05/16 00:36:48;;;;;;;11.15;6.78;;;;;;;6.26;90.55;98463.15;1730112;81;22311;-81
2022/05/16 00:39:19;;;;;;;14.60;7.00;;;;;;;6.26;86.81;98456.42;1728316;80;21130;-82
2022/05/16 00:41:45;;;;;;;10.32;6.87;;;;;;;6.15;87.19;98462.12;1726963;81;20987;-82
2022/05/16 00:44:11;;;;;;;16.02;6.83;;;;;;;6.10;87.12;98458.82;1721448;80;21061;-82
2022/05/16 00:46:37;;;;;;;13.72;7.37;;;;;;;6.11;89.75;98454.25;1728305;80;21007;-85
2022/05/16 00:49:06;;;;;;;16.65;7.58;;;;;;;6.14;90.25;98457.27;1725091;80;21007;-82
2022/05/16 00:51:40;;;;;;;13.35;7.35;;;;;;;6.14;89.45;98459.95;1703327;83;21110;-82
2022/05/16 00:54:17;;;;;;;14.60;6.45;;;;;;;6.10;89.76;98468.77;1711261;82;21461;-85
2022/05/16 00:56:44;;;;;;;12.40;6.72;;;;;;;6.02;89.94;98467.80;1686369;80;21071;-81
2022/05/16 00:59:10;;;;;;;12.78;7.72;;;;;;;5.97;90.56;98460.43;1734612;80;21020;-82
2022/05/16 01:07:05;;;;;;;13.62;7.30;;;;;;;5.88;89.21;98473.41;1713114;83;21013;-82
2022/05/16 01:09:31;;;;;;;11.55;6.55;;;;;;;5.79;90.00;98472.15;1729680;80;21002;-82
2022/05/16 01:11:58;;;;;;;14.58;7.58;;;;;;;5.81;89.02;98473.25;1742906;81;20854;-84
2022/05/16 01:14:52;;;;;;;9.78;7.22;;;;;;;5.79;90.69;98474.02;1730564;82;21527;-84
2022/05/16 01:17:18;;;;;;;11.00;8.08;;;;;;;5.81;91.24;98469.22;1723294;82;21195;-82
2022/05/16 01:19:44;;;;;;;14.10;6.90;;;;;;;5.82;90.90;98470.88;1731387;80;21358;-82
2022/05/16 01:22:34;;;;;;;14.63;6.87;;;;;;;5.80;89.80;98475.66;1743038;81;20894;-82
2022/05/16 01:25:12;;;;;;;12.33;7.58;;;;;;;5.69;90.51;98470.59;1729587;82;21404;-82
2022/05/16 01:27:51;;;;;;;9.95;7.35;;;;;;;5.72;91.84;98484.09;1708491;82;21062;-83
2022/05/16 01:30:21;;;;;;;10.03;6.97;;;;;;;5.73;91.20;98473.65;1724032;80;21220;-82
2022/05/16 01:32:47;;;;;;;9.63;6.50;;;;;;;5.71;90.46;98480.58;1728437;80;21014;-85
2022/05/16 01:35:19;;;;;;;9.25;5.90;;;;;;;5.66;91.79;98481.31;1728652;80;20994;-82
2022/05/16 01:40:29;;;;;;;17.45;8.83;;;;;;;5.64;91.63;98481.27;1728092;80;21049;-85
2022/05/16 01:42:55;;;;;;;11.97;6.25;;;;;;;5.66;92.43;98481.84;1719413;81;21168;-85
2022/05/16 01:45:21;;;;;;;14.25;6.95;;;;;;;5.72;90.88;98479.52;1714733;80;21009;-85
2022/05/16 01:47:47;;;;;;;11.88;6.35;;;;;;;5.65;92.08;98472.14;1721622;80;20942;-85
2022/05/16 01:50:13;;;;;;;11.73;6.62;;;;;;;5.64;90.56;98466.48;1739099;80;20854;-85
2022/05/16 01:52:39;;;;;;;9.35;6.35;;;;;;;5.58;92.14;98460.69;1743219;81;20969;-85
2022/05/16 01:55:05;;;;;;;9.45;6.00;;;;;;;5.55;90.46;98465.99;1730888;80;21692;-85
2022/05/16 01:57:31;;;;;;;13.10;7.12;;;;;;;5.49;90.30;98468.83;1734686;80;21025;-82
2022/05/16 01:59:57;;;;;;;9.68;7.17;;;;;;;5.45;91.02;98463.62;1731745;80;20856;-85
2022/05/16 02:02:23;;;;;;;9.35;5.92;;;;;;;5.40;91.50;98464.34;1728064;80;20935;-83
2022/05/16 02:04:49;;;;;;;12.15;6.87;;;;;;;5.32;90.18;98458.80;1725042;80;21028;-82
2022/05/16 02:07:15;;;;;;;11.85;6.78;;;;;;;5.27;91.30;98464.05;1710020;82;21204;-82
2022/05/16 02:09:41;;;;;;;16.95;6.33;;;;;;;5.18;91.61;98461.42;1718205;80;21124;-85
2022/05/16 02:12:08;;;;;;;12.15;5.97;;;;;;;5.13;91.56;98457.79;1728269;80;20974;-85
2022/05/16 02:14:34;;;;;;;12.98;6.75;;;;;;;5.05;91.81;98454.95;1736887;80;21437;-85
2022/05/16 02:17:00;;;;;;;11.45;7.37;;;;;;;5.02;92.23;98453.53;1742982;81;21329;-81
2022/05/16 02:19:26;;;;;;;8.95;6.00;;;;;;;5.01;92.10;98453.24;1723913;80;21493;-81
2022/05/16 02:24:39;;;;;;;9.65;6.22;;;;;;;4.97;90.62;98462.83;1739176;80;21036;-82
2022/05/16 02:27:10;;;;;;;9.98;6.65;;;;;;;4.90;91.55;98466.15;1742023;82;22192;-85
2022/05/16 02:29:36;;;;;;;11.88;5.85;;;;;;;4.89;91.23;98464.52;1728496;80;21026;-83
2022/05/16 02:32:04;;;;;;;14.25;6.80;;;;;;;4.86;91.74;98468.17;1731732;80;21926;-82
2022/05/16 02:34:30;;;;;;;11.93;6.55;;;;;;;4.82;91.68;98465.14;1743355;82;21088;-85
2022/05/16 02:36:55;;;;;;;9.38;6.87;;;;;;;4.77;91.91;98470.38;1743203;81;21131;-85
2022/05/16 02:39:22;;;;;;;11.20;7.22;;;;;;;4.76;91.71;98477.61;1726288;80;20867;-82
2022/05/16 02:41:47;;;;;;;9.33;6.70;;;;;;;4.69;91.64;98477.42;1730341;80;21045;-82
2022/05/16 02:44:13;;;;;;;12.07;6.28;;;;;;;4.65;91.73;98478.95;1743505;82;21213;-82
2022/05/16 02:46:40;;;;;;;12.35;7.15;;;;;;;4.60;92.04;98486.86;1743062;81;20874;-84
2022/05/16 02:49:06;;;;;;;13.32;7.50;;;;;;;4.59;92.55;98483.88;1743029;82;21080;-82
2022/05/16 02:51:33;;;;;;;12.33;7.08;;;;;;;4.63;93.30;98482.39;1743092;81;21076;-82
2022/05/16 02:53:59;;;;;;;11.08;6.75;;;;;;;4.63;93.05;98482.39;1721876;80;21048;-82
2022/05/16 02:56:24;;;;;;;13.28;7.47;;;;;;;4.66;92.70;98484.61;1743258;81;21365;-82
2022/05/16 02:58:50;;;;;;;17.32;7.28;;;;;;;4.68;93.47;98484.66;1737552;82;20893;-82
2022/05/16 03:01:17;;;;;;;9.58;7.05;;;;;;;4.72;93.76;98483.17;1713732;83;20953;-82
2022/05/16 03:03:43;;;;;;;12.40;7.75;;;;;;;4.73;93.43;98486.67;1719878;80;21552;-82
2022/05/16 03:06:09;;;;;;;12.75;7.83;;;;;;;4.72;93.91;98483.17;1714591;82;20913;-85
2022/05/16 03:08:35;;;;;;;12.35;7.60;;;;;;;4.75;93.55;98488.59;1714953;80;21080;-85
2022/05/16 03:11:02;;;;;;;13.03;6.75;;;;;;;4.76;92.85;98495.06;1728567;83;20970;-82
2022/05/16 03:13:28;;;;;;;15.80;9.80;;;;;;;4.78;92.15;98486.25;1725521;80;21015;-85
2022/05/16 03:15:53;;;;;;;15.93;7.45;;;;;;;4.74;93.36;98495.83;1703290;84;20997;-85
2022/05/16 03:18:19;;;;;;;12.18;6.45;;;;;;;4.75;92.81;98489.41;1728050;80;20938;-81
2022/05/16 03:20:45;;;;;;;19.20;7.80;;;;;;;4.78;92.45;98498.33;1728652;80;20959;-85
2022/05/16 03:23:11;;;;;;;11.22;6.37;;;;;;;4.73;92.10;98499.56;1728561;80;20993;-82
2022/05/16 03:25:37;;;;;;;19.80;8.63;;;;;;;4.69;91.61;98499.72;1722368;82;20905;-82
2022/05/16 03:28:03;;;;;;;21.17;6.60;;;;;;;4.67;91.18;98501.82;1732745;81;21504;-82
2022/05/16 03:30:29;;;;;;;13.93;7.53;;;;;;;4.63;91.91;98511.39;1741498;80;21040;-82
2022/05/16 03:32:55;;;;;;;13.62;8.23;;;;;;;4.58;91.98;98509.09;1719075;82;21048;-85
2022/05/16 03:35:21;;;;;;;16.07;7.75;;;;;;;4.61;91.14;98508.09;1736406;80;20942;-82
2022/05/16 03:37:47;;;;;;;9.75;6.28;;;;;;;4.68;91.96;98510.17;1743100;81;20997;-85
2022/05/16 03:42:57;;;;;;;11.63;6.45;;;;;;;4.78;91.65;98507.73;1722469;80;21062;-85
2022/05/16 03:45:23;;;;;;;11.22;6.62;;;;;;;4.87;91.18;98506.91;1717319;80;21824;-85
2022/05/16 03:47:49;;;;;;;12.03;7.10;;;;;;;4.89;92.11;98504.80;1707631;82;21573;-85
2022/05/16 03:50:15;;;;;;;11.88;5.92;;;;;;;5.01;91.96;98500.25;1704474;82;20887;-85
2022/05/16 03:52:41;;;;;;;11.80;7.22;;;;;;;5.10;92.32;98503.41;1723033;80;21041;-82
2022/05/16 03:55:09;;;;;;;9.70;6.20;;;;;;;5.24;90.88;98506.17;1721815;82;21026;-84
2022/05/16 03:57:35;;;;;;;9.20;5.93;;;;;;;5.27;91.81;98501.66;1727221;80;21825;-81
2022/05/16 04:00:01;;;;;;;9.60;5.55;;;;;;;5.46;91.21;98498.84;1714120;82;21088;-85
2022/05/16 04:02:27;;;;;;;24.05;7.12;;;;;;;5.46;91.21;98498.84;1713311;80;20883;-82
2022/05/16 04:04:53;;;;;;;8.68;6.10;;;;;;;5.59;91.31;98492.71;1714586;80;21521;-85
2022/05/16 04:07:19;;;;;;;13.83;5.70;;;;;;;5.71;91.03;98498.59;1717065;82;20997;-83
2022/05/16 04:09:45;;;;;;;11.85;6.25;;;;;;;5.80;90.90;98495.82;1743359;82;20950;-85
2022/05/16 04:12:11;;;;;;;10.40;6.47;;;;;;;5.92;90.73;98499.35;1743044;81;20890;-82
2022/05/16 04:14:37;;;;;;;11.08;6.85;;;;;;;6.05;90.14;98495.03;1742458;80;20948;-82
2022/05/16 04:17:03;;;;;;;12.78;7.58;;;;;;;6.16;89.42;98496.89;1743119;81;20957;-82
2022/05/16 04:19:29;;;;;;;8.20;6.60;;;;;;;6.22;89.21;98490.52;1729794;82;21505;-85
2022/05/16 04:21:55;;;;;;;11.05;6.83;;;;;;;6.39;88.81;98494.61;1743079;81;21385;-85
2022/05/16 04:24:21;;;;;;;14.28;6.50;;;;;;;6.50;88.39;98499.14;1735196;82;21010;-82
2022/05/16 04:26:47;;;;;;;11.12;5.83;;;;;;;6.62;87.97;98496.38;1733939;82;20870;-85
2022/05/16 04:29:13;;;;;;;11.90;6.10;;;;;;;6.77;87.58;98506.61;1724387;82;20992;-82
2022/05/16 04:31:39;;;;;;;6.35;5.10;;;;;;;6.89;87.46;98504.66;1715582;82;20933;-85
2022/05/16 04:34:09;;;;;;;9.70;6.60;;;;;;;7.08;87.11;98502.00;1740655;80;21341;-84
2022/05/16 04:36:33;;;;;;;14.33;7.97;;;;;;;7.25;86.82;98501.17;1741380;82;20997;-84
2022/05/16 04:38:59;;;;;;;11.25;6.72;;;;;;;7.34;86.83;98502.39;1724349;82;21002;-82
2022/05/16 04:44:09;;;;;;;12.03;6.28;;;;;;;7.69;86.01;98495.37;1730875;80;21004;-86
2022/05/16 04:46:35;;;;;;;12.55;5.87;;;;;;;7.86;85.18;98492.59;1723778;82;22018;-86
2022/05/16 04:49:02;;;;;;;12.00;5.70;;;;;;;7.88;85.08;98489.12;1732643;80;20946;-82
2022/05/16 04:51:28;;;;;;;15.48;6.92;;;;;;;8.03;85.17;98487.98;1712080;82;21048;-82
2022/05/16 04:53:54;;;;;;;14.70;6.70;;;;;;;8.16;85.10;98490.27;1713728;80;20977;-82
2022/05/16 04:56:20;;;;;;;16.75;10.25;;;;;;;8.36;84.87;98483.49;1741456;82;20981;-82
2022/05/16 04:58:46;;;;;;;14.05;7.67;;;;;;;8.62;83.81;98487.27;1725961;82;21972;-83
2022/05/16 05:01:12;;;;;;;14.63;7.15;;;;;;;8.71;83.03;98488.44;1742264;82;20866;-83
2022/05/16 05:03:38;;;;;;;19.65;8.05;;;;;;;8.81;82.88;98486.39;1734162;80;21034;-84
2022/05/16 05:06:04;;;;;;;11.10;7.62;;;;;;;8.92;82.59;98491.61;1718297;82;21497;-86
2022/05/16 05:08:30;;;;;;;13.35;7.22;;;;;;;9.10;82.07;98490.41;1732922;80;20879;-86
2022/05/16 05:16:24;;;;;;;12.80;7.75;;;;;;;9.62;81.76;98481.56;1728559;81;21549;-86
2022/05/16 05:18:51;;;;;;;11.63;7.00;;;;;;;9.90;81.31;98483.86;1728190;80;21447;-86
2022/05/16 05:21:17;;;;;;;9.78;6.90;;;;;;;10.15;80.88;98481.80;1711409;83;21032;-86
2022/05/16 05:23:42;;;;;;;9.25;6.50;;;;;;;10.40;80.01;98477.03;1740824;82;21308;-83
2022/05/16 05:26:10;;;;;;;14.60;6.37;;;;;;;10.49;78.80;98490.05;1757079;81;20937;-80
2022/05/16 05:28:37;;;;;;;8.93;6.22;;;;;;;10.61;77.82;98486.03;1731784;80;21104;-80
2022/05/16 05:31:03;;;;;;;10.13;6.72;;;;;;;10.70;78.07;98489.02;1718702;82;21025;-84
2022/05/16 05:33:29;;;;;;;12.05;4.75;;;;;;;10.95;77.96;98478.20;1706366;80;21007;-83
2022/05/16 05:35:55;;;;;;;10.38;5.12;;;;;;;11.23;77.04;98489.59;1713616;82;21344;-84
2022/05/16 05:38:21;;;;;;;9.28;5.10;;;;;;;11.46;75.99;98479.53;1724313;80;20914;-80
2022/05/16 05:40:49;;;;;;;12.60;5.75;;;;;;;11.69;74.96;98479.45;1728597;80;20888;-81
2022/05/16 05:43:14;;;;;;;9.28;6.37;;;;;;;11.95;75.19;98478.86;1739029;81;21009;-84
2022/05/16 05:45:40;;;;;;;11.50;4.58;;;;;;;12.12;74.68;98480.70;1743283;82;20882;-84
2022/05/16 05:48:07;;;;;;;10.08;6.70;;;;;;;12.34;73.86;98478.16;1735365;81;21191;-81
2022/05/16 05:50:32;;;;;;;8.65;5.50;;;;;;;12.43;72.50;98479.20;1718210;80;22278;-81
2022/05/16 05:52:58;;;;;;;9.68;5.50;;;;;;;12.50;71.23;98476.98;1726543;80;20867;-84
2022/05/16 05:55:24;;;;;;;7.80;5.45;;;;;;;12.60;71.27;98480.19;1728508;82;20946;-81
2022/05/16 05:57:52;;;;;;;9.05;6.97;;;;;;;12.70;69.95;98474.68;1725777;80;21009;-83
2022/05/16 06:00:19;;;;;;;8.70;5.03;;;;;;;12.67;70.29;98476.61;1717456;82;21054;-81
2022/05/16 06:02:45;;;;;;;9.05;5.45;;;;;;;12.83;69.73;98473.25;1715451;80;21540;-84
2022/05/16 06:05:14;;;;;;;12.00;6.70;;;;;;;12.94;69.19;98474.23;1722300;80;20881;-81
2022/05/16 06:07:40;;;;;;;8.88;5.10;;;;;;;13.01;69.50;98479.36;1727996;80;21040;-85
2022/05/16 06:10:07;;;;;;;9.08;5.35;;;;;;;13.20;68.56;98479.50;1734819;80;20886;-81
2022/05/16 06:12:33;;;;;;;10.15;5.55;;;;;;;13.32;68.64;98474.48;1722296;82;21719;-82
2022/05/16 06:14:58;;;;;;;9.03;5.95;;;;;;;13.48;68.32;98473.79;1717798;80;21387;-82
2022/05/16 06:17:24;;;;;;;10.58;6.03;;;;;;;13.64;67.51;98470.37;1726320;80;20909;-85
2022/05/16 06:19:50;;;;;;;8.38;5.42;;;;;;;13.68;67.94;98461.34;1719481;82;20902;-81
2022/05/16 06:22:16;;;;;;;9.43;5.70;;;;;;;13.87;68.05;98464.13;1728853;82;20909;-81
2022/05/16 06:27:29;;;;;;;11.25;6.25;;;;;;;14.18;65.58;98458.28;1717242;80;21076;-85
2022/05/16 06:29:59;;;;;;;10.65;5.05;;;;;;;14.30;66.19;98453.23;1723293;82;21065;-85
2022/05/16 06:32:25;;;;;;;8.85;4.92;;;;;;;14.51;64.91;98452.42;1724950;82;21519;-84
2022/05/16 06:34:52;;;;;;;15.20;5.97;;;;;;;14.64;65.03;98447.05;1731645;82;20984;-85
2022/05/16 06:37:18;;;;;;;11.80;4.78;;;;;;;14.93;66.31;98448.22;1713920;83;21080;-82
2022/05/16 06:39:45;;;;;;;10.82;5.90;;;;;;;15.24;64.21;98447.17;1721210;80;20874;-81
2022/05/16 06:42:12;;;;;;;9.33;4.03;;;;;;;15.52;63.81;98443.12;1727152;80;21078;-81
2022/05/16 06:44:38;;;;;;;8.63;4.20;;;;;;;15.86;63.44;98443.33;1726184;80;21052;-85
2022/05/16 06:47:05;;;;;;;8.05;3.90;;;;;;;16.10;60.58;98448.59;1729322;80;21124;-85
2022/05/16 06:49:32;;;;;;;19.27;4.92;;;;;;;16.24;59.07;98442.55;1734642;80;21160;-85
2022/05/16 06:51:58;;;;;;;8.80;4.17;;;;;;;16.28;59.35;98444.36;1724240;80;21025;-82
2022/05/16 06:54:24;;;;;;;9.33;3.47;;;;;;;16.55;59.03;98441.30;1728895;80;20906;-82
2022/05/16 06:56:50;;;;;;;8.80;3.10;;;;;;;16.77;58.01;98447.41;1729873;82;21041;-85
2022/05/16 06:59:16;;;;;;;5.42;3.42;;;;;;;16.98;58.35;98440.31;1728920;80;20969;-85
2022/05/16 07:01:41;;;;;;;11.93;3.67;;;;;;;17.51;57.62;98441.44;1733612;80;21363;-82
2022/05/16 07:04:07;;;;;;;12.53;4.55;;;;;;;18.01;55.15;98437.32;1734751;80;21594;-82
2022/05/16 07:06:33;;;;;;;8.20;3.72;;;;;;;18.26;52.90;98437.14;1730986;80;20977;-81
2022/05/16 07:08:59;;;;;;;8.33;5.08;;;;;;;18.59;53.45;98432.59;1720900;80;20862;-82
2022/05/16 07:11:25;;;;;;;7.72;3.52;;;;;;;18.86;53.05;98439.72;1723717;80;20972;-81
2022/05/16 07:13:51;;;;;;;6.53;3.25;;;;;;;18.90;52.72;98435.22;1732394;80;21105;-82
2022/05/16 07:16:17;;;;;;;5.00;3.62;;;;;;;19.08;52.09;98445.61;1728035;80;21593;-82
2022/05/16 07:18:43;;;;;;;4.72;2.40;;;;;;;19.36;51.04;98440.55;1732324;80;21674;-82
2022/05/16 07:21:09;;;;;;;5.60;3.77;;;;;;;20.07;48.66;98438.03;1726838;80;20888;-85
2022/05/16 07:23:35;;;;;;;6.40;2.40;;;;;;;20.24;45.47;98434.38;1716048;80;20984;-86
2022/05/16 07:28:45;;;;;;;3.87;2.77;;;;;;;21.16;43.99;98432.95;1743371;80;21024;-86
2022/05/16 07:31:11;;;;;;;5.85;2.75;;;;;;;21.67;38.81;98430.81;1735942;80;20902;-86
2022/05/16 07:33:37;;;;;;;7.40;2.65;;;;;;;22.35;40.76;98426.14;1715626;80;21497;-87
2022/05/16 07:36:04;;;;;;;7.90;2.50;;;;;;;22.96;41.37;98428.19;1726621;80;20906;-86
2022/05/16 07:38:30;;;;;;;6.95;2.67;;;;;;;23.48;39.22;98424.47;1719811;80;21084;-86
2022/05/16 07:40:56;;;;;;;3.27;1.87;;;;;;;23.86;37.52;98432.21;1737638;80;20909;-82
2022/05/16 07:43:22;;;;;;;2.12;1.57;;;;;;;23.89;30.55;98423.19;1730871;82;21025;-82
2022/05/16 07:45:48;;;;;;;2.52;1.42;;;;;;;24.37;34.62;98414.27;1728737;80;21100;-82
2022/05/16 07:48:15;;;;;;;5.37;1.70;;;;;;;25.01;34.01;98414.23;1718577;80;21031;-83
2022/05/16 07:50:42;;;;;;;3.17;1.42;;;;;;;25.30;33.67;98425.34;1712429;81;41515;-83
2022/05/16 07:53:13;;;;;;;6.55;1.50;;;;;;;25.36;28.87;98425.83;1730596;80;21009;-83
2022/05/16 07:55:44;;;;;;;4.60;2.02;;;;;;;26.08;31.68;98425.14;1741704;80;21061;-82
2022/05/16 07:58:10;;;;;;;8.55;2.10;;;;;;;26.61;29.89;98419.00;1712373;82;21461;-83
2022/05/16 08:00:36;;;;;;;4.78;1.75;;;;;;;26.70;29.72;98418.13;1731983;80;20987;-83
2022/05/16 08:03:03;;;;;;;3.85;1.57;;;;;;;26.53;26.58;98421.47;1736599;80;21449;-83
2022/05/16 08:05:30;;;;;;;4.05;1.55;;;;;;;26.87;28.14;98424.30;1726464;80;21084;-83
2022/05/16 08:10:41;;;;;;;6.10;1.00;;;;;;;26.74;24.33;98423.73;1660657;83;21010;-83
2022/05/16 08:13:09;;;;;;;3.42;1.70;;;;;;;27.46;25.32;98431.77;1734103;80;21159;-83
2022/05/16 08:15:35;;;;;;;;;;;;;;;28.07;25.99;98429.56;1736770;80;21280;-85
2022/05/16 08:18:09;;;;;;;3.95;1.37;;;;;;;27.97;23.64;98433.08;1752656;80;20193;-85
2022/05/16 08:20:37;;;;;;;2.22;1.10;;;;;;;27.68;23.32;98425.05;1722342;80;21546;-85
2022/05/16 08:23:04;;;;;;;3.45;1.12;;;;;;;28.09;24.67;98423.02;1726902;80;21053;-86
2022/05/16 08:25:30;;;;;;;3.08;1.50;;;;;;;28.26;21.91;98417.36;1733765;80;21067;-86
2022/05/16 08:27:56;;;;;;;2.70;1.40;;;;;;;28.05;24.00;98416.63;1727485;80;21919;-86
2022/05/16 08:30:23;;;;;;;5.20;1.67;;;;;;;28.59;23.68;98419.20;1729204;80;22351;-85
2022/05/16 08:32:49;;;;;;;3.65;1.52;;;;;;;28.92;23.92;98414.02;1718237;80;21512;-88
2022/05/16 08:35:16;;;;;;;2.42;1.20;;;;;;;28.77;21.58;98413.71;1728972;80;21028;-86
2022/05/16 08:40:40;;;;;;;5.08;1.82;;;;;;;29.01;22.20;98408.87;1724249;80;21144;-85
2022/05/16 08:43:21;;;;;;;5.85;1.50;;;;;;;28.96;21.00;98409.23;1726887;80;21053;-85
2022/05/16 08:45:58;;;;;;;7.25;1.20;;;;;;;27.79;19.99;98411.45;1737691;80;20994;-86
2022/05/16 08:48:36;;;;;;;2.80;1.20;;;;;;;28.71;20.60;98408.30;1734351;80;21076;-89
2022/05/16 08:51:10;;;;;;;2.80;1.10;;;;;;;29.12;18.46;98403.32;1732092;80;21064;-89
2022/05/16 08:53:44;;;;;;;4.33;1.07;;;;;;;29.66;18.35;98401.49;1723645;80;21113;-90
2022/05/16 08:56:11;;;;;;;3.05;0.85;;;;;;;29.31;17.56;98406.36;1723244;82;21773;-89
2022/05/16 08:59:01;;;;;;;4.25;0.95;;;;;;;30.02;19.54;98401.69;1722487;80;21037;-89
2022/05/16 09:01:44;;;;;;;4.53;1.40;;;;;;;28.98;18.42;98390.14;1715803;80;21050;-90
2022/05/16 09:04:17;;;;;;;5.03;1.30;;;;;;;29.88;18.27;98399.48;1728148;80;21424;-91
2022/05/16 09:06:57;;;;;;;4.10;1.40;;;;;;;29.88;18.27;98399.48;1733145;80;21120;-89
2022/05/16 09:09:30;;;;;;;4.12;1.60;;;;;;;30.32;17.96;98406.06;1719280;80;20993;-90
2022/05/16 09:12:18;;;;;;;2.62;0.90;;;;;;;31.28;18.36;98393.20;1722438;80;21168;-90
2022/05/16 09:14:58;;;;;;;4.75;1.82;;;;;;;31.45;18.47;98399.89;1716665;80;21078;-90
2022/05/16 09:18:04;;;;;;;4.05;1.52;;;;;;;32.41;17.07;98394.93;1697601;80;21642;-90
2022/05/16 09:20:45;;;;;;;3.67;1.23;;;;;;;32.74;16.83;98397.57;1724473;80;21114;-91
2022/05/16 09:23:28;;;;;;;3.58;1.57;;;;;;;32.06;18.47;98395.25;1704279;80;21355;-92
2022/05/16 09:26:26;;;;;;;3.12;1.20;;;;;;;32.25;17.87;98398.26;1708360;82;21091;-91
2022/05/16 09:29:16;;;;;;;3.05;0.90;;;;;;;32.15;18.35;98391.36;1631741;86;21087;-90
2022/05/16 09:31:44;;;;;;;2.33;1.30;;;;;;;33.22;18.06;98380.34;1610510;86;21159;-90
2022/05/16 09:34:10;;;;;;;3.92;1.40;;;;;;;32.17;16.65;98379.92;1647762;83;21080;-89
2022/05/16 09:36:42;;;;;;;1.85;1.07;;;;;;;32.97;16.79;98377.25;1730371;80;21092;-90
2022/05/16 09:39:09;;;;;;;3.75;1.70;;;;;;;32.12;17.16;98385.16;1722328;80;21080;-89
2022/05/16 09:42:06;;;;;;;4.47;1.20;;;;;;;32.58;17.47;98376.92;1708098;82;21045;-91
2022/05/16 09:45:02;;;;;;;4.50;1.30;;;;;;;31.69;17.12;98370.09;1731726;80;21036;-90
2022/05/16 09:47:40;;;;;;;4.85;1.42;;;;;;;31.88;17.90;98373.00;1716416;80;21072;-90
2022/05/16 09:50:24;;;;;;;3.08;1.40;;;;;;;33.00;17.07;98367.22;1729077;80;21067;-91
2022/05/16 09:53:09;;;;;;;3.45;1.45;;;;;;;32.53;16.91;98371.16;1707172;82;21043;-90
2022/05/16 09:55:46;;;;;;;3.22;1.32;;;;;;;32.75;17.02;98369.70;1730262;80;21001;-90
2022/05/16 09:58:19;;;;;;;3.47;1.62;;;;;;;31.76;17.52;98374.84;1722637;80;21123;-90
2022/05/16 10:00:57;;;;;;;3.55;1.42;;;;;;;33.05;17.38;98368.14;1717631;80;21092;-88
2022/05/16 10:03:48;;;;;;;4.92;1.42;;;;;;;32.53;17.31;98369.75;1724559;80;21017;-91
2022/05/16 10:06:33;;;;;;;6.00;1.70;;;;;;;33.65;16.83;98370.08;1722846;81;21108;-87
2022/05/16 10:09:09;;;;;;;3.90;1.87;;;;;;;33.61;15.42;98366.55;1677602;82;21140;-87
2022/05/16 10:11:37;;;;;;;4.97;1.45;;;;;;;34.70;15.50;98358.62;1715582;80;21022;-87
2022/05/16 10:14:03;;;;;;;5.05;1.57;;;;;;;33.86;15.27;98361.13;1712560;82;21756;-87
2022/05/16 10:16:29;;;;;;;3.37;1.45;;;;;;;34.29;15.61;98360.40;1710051;82;20898;-87
2022/05/16 10:19:04;;;;;;;3.42;1.30;;;;;;;34.33;15.34;98356.89;1728925;80;21073;-87
2022/05/16 10:21:41;;;;;;;3.62;1.27;;;;;;;34.19;14.60;98357.97;1705796;80;21572;-87
2022/05/16 10:24:10;;;;;;;8.50;2.20;;;;;;;35.42;14.94;98354.46;1734794;80;21959;-87
2022/05/16 10:26:39;;;;;;;4.45;1.42;;;;;;;35.51;14.41;98351.83;1696853;81;21870;-87
2022/05/16 10:29:10;;;;;;;4.28;1.40;;;;;;;35.63;13.36;98350.94;1718451;80;21524;-87
2022/05/16 10:34:55;;;;;;;3.17;1.35;;;;;;;35.19;14.84;98346.91;1723363;80;21193;-87
2022/05/16 10:37:21;;;;;;;3.35;1.25;;;;;;;35.60;15.18;98342.77;1716958;80;21575;-87
2022/05/16 10:39:55;;;;;;;2.58;1.27;;;;;;;36.06;14.79;98350.06;1726423;80;21036;-86
2022/05/16 10:42:25;;;;;;;2.45;1.20;;;;;;;35.94;13.83;98352.82;1725567;80;21048;-87
2022/05/16 10:45:05;;;;;;;2.77;1.25;;;;;;;35.21;14.03;98347.87;1728458;80;21044;-87
2022/05/16 10:48:11;;;;;;;3.25;1.17;;;;;;;36.30;14.19;98357.69;1691540;82;21056;-88
2022/05/16 10:50:49;;;;;;;3.22;1.35;;;;;;;34.22;14.19;98353.67;1717844;80;20999;-87
2022/05/16 10:53:25;;;;;;;4.17;1.25;;;;;;;34.82;14.94;98346.70;1722294;80;22031;-87
2022/05/16 10:56:34;;;;;;;2.90;1.00;;;;;;;34.26;14.32;98342.34;1748458;80;21414;-87
2022/05/16 10:59:05;;;;;;;5.75;1.10;;;;;;;32.92;15.09;98335.65;1729220;80;21797;-86
2022/05/16 11:01:48;;;;;;;14.75;2.22;;;;;;;33.69;14.94;98331.32;1731336;80;21054;-87
2022/05/16 11:04:51;;;;;;;3.35;1.12;;;;;;;35.15;14.63;98329.93;1743351;80;20986;-87
2022/05/16 11:07:46;;;;;;;4.35;3.35;;;;;;;35.81;14.13;98329.56;1733367;80;21035;-87
2022/05/16 11:10:34;;;;;;;4.10;1.82;;;;;;;35.27;14.24;98333.45;1743003;80;20973;-92
2022/05/16 11:13:11;;;;;;;2.35;1.17;;;;;;;36.54;14.11;98334.28;1731558;80;21125;-91
2022/05/16 11:15:42;;;;;;;6.75;1.47;;;;;;;35.30;13.49;98337.62;1730243;80;21068;-90
2022/05/16 11:18:34;;;;;;;4.67;1.50;;;;;;;34.16;14.60;98337.73;1728977;80;21709;-91
2022/05/16 11:21:18;;;;;;;5.75;1.72;;;;;;;34.85;14.85;98335.17;1679324;80;22254;-91
2022/05/16 11:24:07;;;;;;;5.08;1.32;;;;;;;33.56;15.01;98329.09;1733988;80;21018;-89
2022/05/16 11:26:41;;;;;;;5.03;1.50;;;;;;;33.64;14.39;98333.98;1728997;80;21065;-91
2022/05/16 11:29:36;;;;;;;3.42;1.52;;;;;;;33.76;14.92;98328.39;1737454;80;21655;-90
2022/05/16 11:32:43;;;;;;;3.55;1.47;;;;;;;33.81;15.11;98319.46;1731090;80;21457;-91
2022/05/16 11:35:33;;;;;;;3.42;1.65;;;;;;;32.78;15.77;98323.17;1731468;80;22365;-90
2022/05/16 11:38:19;;;;;;;2.40;1.10;;;;;;;32.50;15.64;98322.32;1721926;80;21617;-91
2022/05/16 11:41:33;;;;;;;2.12;1.40;;;;;;;33.46;15.55;98310.41;1731473;80;21124;-90
2022/05/16 11:44:25;;;;;;;6.22;1.62;;;;;;;33.87;15.60;98304.49;1717002;80;20933;-90
2022/05/16 11:47:25;;;;;;;3.45;1.45;;;;;;;33.13;15.33;98308.48;1727375;80;21209;-90
2022/05/16 11:50:05;;;;;;;3.00;1.42;;;;;;;33.37;15.61;98310.16;1733081;80;21782;-91
2022/05/16 11:52:54;;;;;;;3.22;2.30;;;;;;;32.32;16.29;98318.93;1721656;80;21036;-90
2022/05/16 12:01:27;;;;;;;2.30;1.10;;;;;;;31.65;16.70;98315.52;1732267;80;21136;-90
2022/05/16 12:04:18;;;;;;;3.65;1.85;;;;;;;31.12;16.99;98308.91;1725761;80;21544;-91
2022/05/16 12:06:50;;;;;;;3.52;1.20;;;;;;;31.85;16.57;98304.56;1696884;82;21116;-91
2022/05/16 12:09:23;;;;;;;5.15;1.37;;;;;;;32.00;16.68;98303.83;1725738;80;21087;-90
2022/05/16 12:12:00;;;;;;;3.22;1.50;;;;;;;32.11;16.66;98307.30;1720757;80;21029;-90
2022/05/16 12:14:39;;;;;;;12.50;1.40;;;;;;;31.96;16.28;98316.48;1740274;80;21092;-90
2022/05/16 12:17:19;;;;;;;1.98;1.07;;;;;;;32.94;16.29;98299.53;1722041;80;21122;-90
2022/05/16 12:19:48;;;;;;;3.02;1.30;;;;;;;31.32;16.79;98302.19;1722201;80;21128;-89
2022/05/16 12:22:32;;;;;;;4.33;1.40;;;;;;;32.25;16.66;98304.35;1727933;80;21083;-90
2022/05/16 12:25:11;;;;;;;5.10;1.75;;;;;;;31.68;17.21;98302.08;1718144;80;21033;-90
2022/05/16 12:27:42;;;;;;;2.98;1.45;;;;;;;31.89;17.20;98298.94;1725839;80;21571;-91
2022/05/16 12:30:22;;;;;;;4.00;1.37;;;;;;;31.52;17.50;98292.63;1706620;82;21528;-91
2022/05/16 12:32:54;;;;;;;3.52;1.70;;;;;;;32.90;16.39;98286.76;1700190;80;21100;-91